sensor_id;sensor_type;location;lat;lon;timestamp;P1;durP1;ratioP1;P2;durP2;ratioP2
9809;SDS011;4944;52.514;13.192;2024-01-15T00:01:13;8.57;;;7.20;;
9809;SDS011;4944;52.514;13.192;2024-01-15T00:03:40;8.70;;;7.37;;
9809;SDS011;4944;52.514;13.192;2024-01-15T00:06:07;8.07;;;6.70;;
9809;SDS011;4944;52.514;13.192;2024-01-15T00:08:34;8.10;;;6.80;;
9809;SDS011;4944;52.514;13.192;2024-01-15T00:11:01;8.80;;;7.20;;
9809;SDS011;4944;52.514;13.192;2024-01-15T00:13:28;9.83;;;7.17;;
9809;SDS011;4944;52.514;13.192;2024-01-15T00:15:56;9.83;;;7.73;;
9809;SDS011;4944;52.514;13.192;2024-01-15T00:18:23;7.23;;;6.53;;
9809;SDS011;4944;52.514;13.192;2024-01-15T00:20:50;7.67;;;6.90;;
9809;SDS011;4944;52.514;13.192;2024-01-15T00:23:17;7.77;;;7.00;;
9809;SDS011;4944;52.514;13.192;2024-01-15T00:25:43;7.37;;;6.67;;
9809;SDS011;4944;52.514;13.192;2024-01-15T00:28:10;8.63;;;6.93;;
9809;SDS011;4944;52.514;13.192;2024-01-15T00:30:36;8.93;;;6.80;;
9809;SDS011;4944;52.514;13.192;2024-01-15T00:33:04;7.10;;;6.13;;
9809;SDS011;4944;52.514;13.192;2024-01-15T00:35:32;9.57;;;7.03;;
9809;SDS011;4944;52.514;13.192;2024-01-15T00:37:59;7.03;;;6.33;;
9809;SDS011;4944;52.514;13.192;2024-01-15T00:40:26;7.80;;;6.70;;
9809;SDS011;4944;52.514;13.192;2024-01-15T00:42:52;8.53;;;6.33;;
9809;SDS011;4944;52.514;13.192;2024-01-15T00:45:19;7.70;;;6.10;;
9809;SDS011;4944;52.514;13.192;2024-01-15T00:47:46;6.50;;;5.90;;
9809;SDS011;4944;52.514;13.192;2024-01-15T00:50:14;6.10;;;5.50;;
9809;SDS011;4944;52.514;13.192;2024-01-15T00:52:42;7.30;;;6.03;;
9809;SDS011;4944;52.514;13.192;2024-01-15T00:55:09;6.80;;;6.07;;
9809;SDS011;4944;52.514;13.192;2024-01-15T00:57:36;6.87;;;5.80;;
9809;SDS011;4944;52.514;13.192;2024-01-15T01:00:03;6.63;;;5.83;;
9809;SDS011;4944;52.514;13.192;2024-01-15T01:02:31;7.23;;;6.07;;
9809;SDS011;4944;52.514;13.192;2024-01-15T01:04:58;5.93;;;5.30;;
9809;SDS011;4944;52.514;13.192;2024-01-15T01:07:26;8.90;;;6.03;;
9809;SDS011;4944;52.514;13.192;2024-01-15T01:09:53;7.00;;;6.30;;
9809;SDS011;4944;52.514;13.192;2024-01-15T01:12:20;8.03;;;6.53;;
9809;SDS011;4944;52.514;13.192;2024-01-15T01:14:47;7.87;;;6.67;;
9809;SDS011;4944;52.514;13.192;2024-01-15T01:17:14;8.23;;;6.60;;
9809;SDS011;4944;52.514;13.192;2024-01-15T01:19:40;7.13;;;6.30;;
9809;SDS011;4944;52.514;13.192;2024-01-15T01:22:07;8.07;;;6.87;;
9809;SDS011;4944;52.514;13.192;2024-01-15T01:24:36;7.83;;;6.83;;
9809;SDS011;4944;52.514;13.192;2024-01-15T01:27:03;9.10;;;6.47;;
9809;SDS011;4944;52.514;13.192;2024-01-15T01:29:30;8.23;;;7.10;;
9809;SDS011;4944;52.514;13.192;2024-01-15T01:31:57;9.20;;;7.00;;
9809;SDS011;4944;52.514;13.192;2024-01-15T01:34:23;7.43;;;6.60;;
9809;SDS011;4944;52.514;13.192;2024-01-15T01:36:50;9.57;;;7.23;;
9809;SDS011;4944;52.514;13.192;2024-01-15T01:39:17;10.27;;;6.80;;
9809;SDS011;4944;52.514;13.192;2024-01-15T01:41:45;7.27;;;6.50;;
9809;SDS011;4944;52.514;13.192;2024-01-15T01:44:12;9.33;;;7.20;;
9809;SDS011;4944;52.514;13.192;2024-01-15T01:46:39;8.67;;;7.10;;
9809;SDS011;4944;52.514;13.192;2024-01-15T01:49:07;9.87;;;7.47;;
9809;SDS011;4944;52.514;13.192;2024-01-15T01:51:35;11.77;;;7.43;;
9809;SDS011;4944;52.514;13.192;2024-01-15T01:54:02;8.93;;;7.67;;
9809;SDS011;4944;52.514;13.192;2024-01-15T01:56:30;9.93;;;7.60;;
9809;SDS011;4944;52.514;13.192;2024-01-15T01:58:58;8.40;;;6.97;;
9809;SDS011;4944;52.514;13.192;2024-01-15T02:01:26;10.33;;;7.17;;
9809;SDS011;4944;52.514;13.192;2024-01-15T02:03:53;8.40;;;6.47;;
9809;SDS011;4944;52.514;13.192;2024-01-15T02:06:21;7.33;;;6.53;;
9809;SDS011;4944;52.514;13.192;2024-01-15T02:08:49;8.67;;;7.17;;
9809;SDS011;4944;52.514;13.192;2024-01-15T02:11:16;9.93;;;6.67;;
9809;SDS011;4944;52.514;13.192;2024-01-15T02:13:43;8.73;;;6.73;;
9809;SDS011;4944;52.514;13.192;2024-01-15T02:16:12;10.40;;;6.70;;
9809;SDS011;4944;52.514;13.192;2024-01-15T02:18:39;8.13;;;5.97;;
9809;SDS011;4944;52.514;13.192;2024-01-15T02:21:07;7.40;;;5.17;;
9809;SDS011;4944;52.514;13.192;2024-01-15T02:23:35;5.33;;;4.73;;
9809;SDS011;4944;52.514;13.192;2024-01-15T02:26:02;8.13;;;5.00;;
9809;SDS011;4944;52.514;13.192;2024-01-15T02:28:30;6.33;;;5.20;;
9809;SDS011;4944;52.514;13.192;2024-01-15T02:30:58;7.63;;;5.30;;
9809;SDS011;4944;52.514;13.192;2024-01-15T02:33:25;4.97;;;4.50;;
9809;SDS011;4944;52.514;13.192;2024-01-15T02:35:52;5.03;;;4.57;;
9809;SDS011;4944;52.514;13.192;2024-01-15T02:38:19;4.23;;;3.83;;
9809;SDS011;4944;52.514;13.192;2024-01-15T02:40:47;4.80;;;4.10;;
9809;SDS011;4944;52.514;13.192;2024-01-15T02:43:15;4.83;;;4.17;;
9809;SDS011;4944;52.514;13.192;2024-01-15T02:45:44;4.50;;;4.10;;
9809;SDS011;4944;52.514;13.192;2024-01-15T02:48:11;5.37;;;3.83;;
9809;SDS011;4944;52.514;13.192;2024-01-15T02:50:38;4.83;;;3.83;;
9809;SDS011;4944;52.514;13.192;2024-01-15T02:53:05;4.47;;;4.07;;
9809;SDS011;4944;52.514;13.192;2024-01-15T02:55:31;6.63;;;4.37;;
9809;SDS011;4944;52.514;13.192;2024-01-15T02:58:00;6.77;;;4.50;;
9809;SDS011;4944;52.514;13.192;2024-01-15T03:00:27;6.63;;;4.13;;
9809;SDS011;4944;52.514;13.192;2024-01-15T03:02:54;4.40;;;4.00;;
9809;SDS011;4944;52.514;13.192;2024-01-15T03:05:22;5.93;;;4.43;;
9809;SDS011;4944;52.514;13.192;2024-01-15T03:07:49;6.03;;;4.27;;
9809;SDS011;4944;52.514;13.192;2024-01-15T03:10:16;4.87;;;4.00;;
9809;SDS011;4944;52.514;13.192;2024-01-15T03:12:43;4.90;;;4.47;;
9809;SDS011;4944;52.514;13.192;2024-01-15T03:15:11;4.87;;;4.00;;
9809;SDS011;4944;52.514;13.192;2024-01-15T03:17:38;4.30;;;3.90;;
9809;SDS011;4944;52.514;13.192;2024-01-15T03:20:05;4.43;;;4.03;;
9809;SDS011;4944;52.514;13.192;2024-01-15T03:22:33;6.03;;;3.80;;
9809;SDS011;4944;52.514;13.192;2024-01-15T03:24:59;6.97;;;3.80;;
9809;SDS011;4944;52.514;13.192;2024-01-15T03:27:26;6.10;;;4.40;;
9809;SDS011;4944;52.514;13.192;2024-01-15T03:29:53;4.70;;;3.77;;
9809;SDS011;4944;52.514;13.192;2024-01-15T03:32:21;5.00;;;3.57;;
9809;SDS011;4944;52.514;13.192;2024-01-15T03:34:48;4.53;;;3.73;;
9809;SDS011;4944;52.514;13.192;2024-01-15T03:37:17;5.13;;;3.67;;
9809;SDS011;4944;52.514;13.192;2024-01-15T03:39:44;4.20;;;3.47;;
9809;SDS011;4944;52.514;13.192;2024-01-15T03:42:11;4.17;;;3.73;;
9809;SDS011;4944;52.514;13.192;2024-01-15T03:44:39;4.40;;;3.73;;
9809;SDS011;4944;52.514;13.192;2024-01-15T03:47:06;7.77;;;3.80;;
9809;SDS011;4944;52.514;13.192;2024-01-15T03:49:34;6.73;;;3.67;;
9809;SDS011;4944;52.514;13.192;2024-01-15T03:52:01;4.97;;;4.03;;
9809;SDS011;4944;52.514;13.192;2024-01-15T03:54:28;4.30;;;3.70;;
9809;SDS011;4944;52.514;13.192;2024-01-15T03:56:55;5.93;;;3.77;;
9809;SDS011;4944;52.514;13.192;2024-01-15T03:59:22;5.33;;;3.80;;
9809;SDS011;4944;52.514;13.192;2024-01-15T04:01:49;8.00;;;5.10;;
9809;SDS011;4944;52.514;13.192;2024-01-15T04:04:16;6.20;;;3.37;;
9809;SDS011;4944;52.514;13.192;2024-01-15T04:06:44;5.13;;;3.17;;
9809;SDS011;4944;52.514;13.192;2024-01-15T04:09:11;4.57;;;3.50;;
9809;SDS011;4944;52.514;13.192;2024-01-15T04:11:39;3.37;;;3.07;;
9809;SDS011;4944;52.514;13.192;2024-01-15T04:14:06;4.43;;;3.40;;
9809;SDS011;4944;52.514;13.192;2024-01-15T04:16:33;3.27;;;2.97;;
9809;SDS011;4944;52.514;13.192;2024-01-15T04:18:59;4.17;;;3.50;;
9809;SDS011;4944;52.514;13.192;2024-01-15T04:21:26;4.80;;;3.13;;
9809;SDS011;4944;52.514;13.192;2024-01-15T04:23:55;5.20;;;3.20;;
9809;SDS011;4944;52.514;13.192;2024-01-15T04:26:21;5.17;;;3.00;;
9809;SDS011;4944;52.514;13.192;2024-01-15T04:28:48;4.60;;;3.20;;
9809;SDS011;4944;52.514;13.192;2024-01-15T04:31:22;4.27;;;2.93;;
9809;SDS011;4944;52.514;13.192;2024-01-15T04:33:50;7.67;;;3.27;;
9809;SDS011;4944;52.514;13.192;2024-01-15T04:36:17;4.00;;;2.80;;
9809;SDS011;4944;52.514;13.192;2024-01-15T04:38:43;3.30;;;3.00;;
9809;SDS011;4944;52.514;13.192;2024-01-15T04:41:12;4.97;;;2.80;;
9809;SDS011;4944;52.514;13.192;2024-01-15T04:43:39;5.77;;;3.07;;
9809;SDS011;4944;52.514;13.192;2024-01-15T04:46:06;4.13;;;2.47;;
9809;SDS011;4944;52.514;13.192;2024-01-15T04:48:33;5.10;;;2.57;;
9809;SDS011;4944;52.514;13.192;2024-01-15T04:51:03;4.47;;;2.60;;
9809;SDS011;4944;52.514;13.192;2024-01-15T04:53:31;2.87;;;2.20;;
9809;SDS011;4944;52.514;13.192;2024-01-15T04:55:58;3.00;;;2.10;;
9809;SDS011;4944;52.514;13.192;2024-01-15T04:58:26;4.13;;;2.30;;
9809;SDS011;4944;52.514;13.192;2024-01-15T05:00:53;2.80;;;1.90;;
9809;SDS011;4944;52.514;13.192;2024-01-15T05:03:20;4.67;;;2.43;;
9809;SDS011;4944;52.514;13.192;2024-01-15T05:05:47;3.37;;;2.17;;
9809;SDS011;4944;52.514;13.192;2024-01-15T05:08:14;3.27;;;1.60;;
9809;SDS011;4944;52.514;13.192;2024-01-15T05:10:41;3.57;;;2.27;;
9809;SDS011;4944;52.514;13.192;2024-01-15T05:13:07;3.00;;;2.10;;
9809;SDS011;4944;52.514;13.192;2024-01-15T05:15:36;2.40;;;1.93;;
9809;SDS011;4944;52.514;13.192;2024-01-15T05:18:03;3.47;;;1.90;;
9809;SDS011;4944;52.514;13.192;2024-01-15T05:20:30;2.43;;;1.53;;
9809;SDS011;4944;52.514;13.192;2024-01-15T05:22:57;4.90;;;1.80;;
9809;SDS011;4944;52.514;13.192;2024-01-15T05:25:24;3.73;;;1.73;;
9809;SDS011;4944;52.514;13.192;2024-01-15T05:27:50;3.27;;;1.80;;
9809;SDS011;4944;52.514;13.192;2024-01-15T05:30:17;3.03;;;2.00;;
9809;SDS011;4944;52.514;13.192;2024-01-15T05:32:46;3.73;;;1.93;;
9809;SDS011;4944;52.514;13.192;2024-01-15T05:35:13;5.67;;;1.50;;
9809;SDS011;4944;52.514;13.192;2024-01-15T05:37:41;3.20;;;1.60;;
9809;SDS011;4944;52.514;13.192;2024-01-15T05:40:10;3.00;;;1.73;;
9809;SDS011;4944;52.514;13.192;2024-01-15T05:42:37;3.93;;;1.73;;
9809;SDS011;4944;52.514;13.192;2024-01-15T05:45:05;4.10;;;1.63;;
9809;SDS011;4944;52.514;13.192;2024-01-15T05:47:32;8.10;;;1.90;;
9809;SDS011;4944;52.514;13.192;2024-01-15T05:50:00;4.97;;;1.67;;
9809;SDS011;4944;52.514;13.192;2024-01-15T05:52:27;4.40;;;1.47;;
9809;SDS011;4944;52.514;13.192;2024-01-15T05:54:54;5.43;;;1.60;;
9809;SDS011;4944;52.514;13.192;2024-01-15T05:57:21;4.93;;;1.80;;
9809;SDS011;4944;52.514;13.192;2024-01-15T05:59:48;2.87;;;1.90;;
9809;SDS011;4944;52.514;13.192;2024-01-15T06:02:15;4.37;;;2.30;;
9809;SDS011;4944;52.514;13.192;2024-01-15T06:04:42;5.37;;;1.60;;
9809;SDS011;4944;52.514;13.192;2024-01-15T06:07:10;5.23;;;1.50;;
9809;SDS011;4944;52.514;13.192;2024-01-15T06:09:37;4.07;;;1.60;;
9809;SDS011;4944;52.514;13.192;2024-01-15T06:12:05;2.57;;;1.70;;
9809;SDS011;4944;52.514;13.192;2024-01-15T06:14:33;2.40;;;1.37;;
9809;SDS011;4944;52.514;13.192;2024-01-15T06:17:00;3.10;;;1.07;;
9809;SDS011;4944;52.514;13.192;2024-01-15T06:19:26;3.10;;;1.50;;
9809;SDS011;4944;52.514;13.192;2024-01-15T06:21:53;5.50;;;1.50;;
9809;SDS011;4944;52.514;13.192;2024-01-15T06:24:21;5.90;;;1.90;;
9809;SDS011;4944;52.514;13.192;2024-01-15T06:26:48;4.87;;;1.27;;
9809;SDS011;4944;52.514;13.192;2024-01-15T06:29:15;3.07;;;1.37;;
9809;SDS011;4944;52.514;13.192;2024-01-15T06:31:42;3.57;;;1.23;;
9809;SDS011;4944;52.514;13.192;2024-01-15T06:34:09;3.07;;;1.40;;
9809;SDS011;4944;52.514;13.192;2024-01-15T06:36:36;4.90;;;1.93;;
9809;SDS011;4944;52.514;13.192;2024-01-15T06:39:03;3.73;;;1.33;;
9809;SDS011;4944;52.514;13.192;2024-01-15T06:41:31;2.67;;;1.30;;
9809;SDS011;4944;52.514;13.192;2024-01-15T06:43:58;3.87;;;1.30;;
9809;SDS011;4944;52.514;13.192;2024-01-15T06:46:25;2.83;;;1.30;;
9809;SDS011;4944;52.514;13.192;2024-01-15T06:48:52;5.83;;;1.47;;
9809;SDS011;4944;52.514;13.192;2024-01-15T06:51:19;2.70;;;1.30;;
9809;SDS011;4944;52.514;13.192;2024-01-15T06:53:46;4.70;;;1.60;;
9809;SDS011;4944;52.514;13.192;2024-01-15T06:56:13;3.37;;;1.20;;
9809;SDS011;4944;52.514;13.192;2024-01-15T06:58:41;3.73;;;1.30;;
9809;SDS011;4944;52.514;13.192;2024-01-15T07:01:08;5.53;;;1.30;;
9809;SDS011;4944;52.514;13.192;2024-01-15T07:03:35;5.03;;;1.63;;
9809;SDS011;4944;52.514;13.192;2024-01-15T07:06:02;3.17;;;1.17;;
9809;SDS011;4944;52.514;13.192;2024-01-15T07:08:29;3.20;;;1.13;;
9809;SDS011;4944;52.514;13.192;2024-01-15T07:10:56;4.67;;;1.00;;
9809;SDS011;4944;52.514;13.192;2024-01-15T07:13:23;4.33;;;1.20;;
9809;SDS011;4944;52.514;13.192;2024-01-15T07:15:51;2.77;;;1.27;;
9809;SDS011;4944;52.514;13.192;2024-01-15T07:18:18;3.83;;;1.30;;
9809;SDS011;4944;52.514;13.192;2024-01-15T07:20:45;2.77;;;1.50;;
9809;SDS011;4944;52.514;13.192;2024-01-15T07:23:12;2.67;;;1.37;;
9809;SDS011;4944;52.514;13.192;2024-01-15T07:25:39;5.83;;;1.47;;
9809;SDS011;4944;52.514;13.192;2024-01-15T07:28:06;2.53;;;1.30;;
9809;SDS011;4944;52.514;13.192;2024-01-15T07:30:32;3.40;;;1.40;;
9809;SDS011;4944;52.514;13.192;2024-01-15T07:33:01;2.57;;;1.30;;
9809;SDS011;4944;52.514;13.192;2024-01-15T07:35:29;1.73;;;1.00;;
9809;SDS011;4944;52.514;13.192;2024-01-15T07:37:56;4.80;;;1.30;;
9809;SDS011;4944;52.514;13.192;2024-01-15T07:40:23;4.23;;;1.67;;
9809;SDS011;4944;52.514;13.192;2024-01-15T07:42:50;4.97;;;1.57;;
9809;SDS011;4944;52.514;13.192;2024-01-15T07:45:17;4.67;;;1.13;;
9809;SDS011;4944;52.514;13.192;2024-01-15T07:47:44;2.47;;;1.40;;
9809;SDS011;4944;52.514;13.192;2024-01-15T07:50:12;4.93;;;1.20;;
9809;SDS011;4944;52.514;13.192;2024-01-15T07:52:39;4.63;;;1.50;;
9809;SDS011;4944;52.514;13.192;2024-01-15T07:55:07;3.20;;;1.60;;
9809;SDS011;4944;52.514;13.192;2024-01-15T07:57:34;4.27;;;1.50;;
9809;SDS011;4944;52.514;13.192;2024-01-15T08:00:02;5.50;;;1.70;;
9809;SDS011;4944;52.514;13.192;2024-01-15T08:02:30;3.60;;;1.27;;
9809;SDS011;4944;52.514;13.192;2024-01-15T08:04:57;5.20;;;1.40;;
9809;SDS011;4944;52.514;13.192;2024-01-15T08:07:26;5.03;;;1.40;;
9809;SDS011;4944;52.514;13.192;2024-01-15T08:09:52;5.93;;;1.70;;
9809;SDS011;4944;52.514;13.192;2024-01-15T08:12:19;5.57;;;1.43;;
9809;SDS011;4944;52.514;13.192;2024-01-15T08:14:47;1.97;;;1.03;;
9809;SDS011;4944;52.514;13.192;2024-01-15T08:17:14;5.60;;;1.27;;
9809;SDS011;4944;52.514;13.192;2024-01-15T08:19:42;4.43;;;1.33;;
9809;SDS011;4944;52.514;13.192;2024-01-15T08:22:09;4.17;;;1.20;;
9809;SDS011;4944;52.514;13.192;2024-01-15T08:24:37;3.27;;;0.80;;
9809;SDS011;4944;52.514;13.192;2024-01-15T08:27:04;4.77;;;1.10;;
9809;SDS011;4944;52.514;13.192;2024-01-15T08:29:31;3.77;;;1.10;;
9809;SDS011;4944;52.514;13.192;2024-01-15T08:32:00;4.30;;;1.50;;
9809;SDS011;4944;52.514;13.192;2024-01-15T08:34:26;1.53;;;1.20;;
9809;SDS011;4944;52.514;13.192;2024-01-15T08:36:53;4.23;;;1.30;;
9809;SDS011;4944;52.514;13.192;2024-01-15T08:39:20;5.50;;;1.80;;
9809;SDS011;4944;52.514;13.192;2024-01-15T08:41:48;3.33;;;1.10;;
9809;SDS011;4944;52.514;13.192;2024-01-15T08:44:15;2.00;;;0.97;;
9809;SDS011;4944;52.514;13.192;2024-01-15T08:46:43;3.40;;;1.07;;
9809;SDS011;4944;52.514;13.192;2024-01-15T08:49:10;2.27;;;1.30;;
9809;SDS011;4944;52.514;13.192;2024-01-15T08:51:37;3.00;;;1.37;;
9809;SDS011;4944;52.514;13.192;2024-01-15T08:54:04;4.20;;;1.47;;
9809;SDS011;4944;52.514;13.192;2024-01-15T08:56:33;4.13;;;1.33;;
9809;SDS011;4944;52.514;13.192;2024-01-15T08:59:01;7.57;;;1.70;;
9809;SDS011;4944;52.514;13.192;2024-01-15T09:01:28;4.80;;;1.40;;
9809;SDS011;4944;52.514;13.192;2024-01-15T09:03:56;4.07;;;1.43;;
9809;SDS011;4944;52.514;13.192;2024-01-15T09:06:23;3.40;;;1.47;;
9809;SDS011;4944;52.514;13.192;2024-01-15T09:08:49;4.40;;;1.37;;
9809;SDS011;4944;52.514;13.192;2024-01-15T09:11:16;5.17;;;1.33;;
9809;SDS011;4944;52.514;13.192;2024-01-15T09:13:43;2.37;;;1.00;;
9809;SDS011;4944;52.514;13.192;2024-01-15T09:16:11;3.40;;;1.00;;
9809;SDS011;4944;52.514;13.192;2024-01-15T09:18:38;2.60;;;1.10;;
9809;SDS011;4944;52.514;13.192;2024-01-15T09:21:05;4.73;;;1.60;;
9809;SDS011;4944;52.514;13.192;2024-01-15T09:23:32;3.97;;;1.27;;
9809;SDS011;4944;52.514;13.192;2024-01-15T09:25:59;2.40;;;1.40;;
9809;SDS011;4944;52.514;13.192;2024-01-15T09:28:26;4.63;;;1.50;;
9809;SDS011;4944;52.514;13.192;2024-01-15T09:30:53;5.77;;;1.50;;
9809;SDS011;4944;52.514;13.192;2024-01-15T09:33:21;3.20;;;1.23;;
9809;SDS011;4944;52.514;13.192;2024-01-15T09:35:48;2.97;;;1.07;;
9809;SDS011;4944;52.514;13.192;2024-01-15T09:38:14;4.40;;;1.83;;
9809;SDS011;4944;52.514;13.192;2024-01-15T09:40:43;2.10;;;1.10;;
9809;SDS011;4944;52.514;13.192;2024-01-15T09:43:13;2.73;;;1.30;;
9809;SDS011;4944;52.514;13.192;2024-01-15T09:45:41;3.43;;;1.10;;
9809;SDS011;4944;52.514;13.192;2024-01-15T09:48:08;2.10;;;0.87;;
9809;SDS011;4944;52.514;13.192;2024-01-15T09:50:36;1.63;;;1.00;;
9809;SDS011;4944;52.514;13.192;2024-01-15T09:53:03;3.10;;;1.00;;
9809;SDS011;4944;52.514;13.192;2024-01-15T09:55:32;1.47;;;0.90;;
9809;SDS011;4944;52.514;13.192;2024-01-15T09:58:02;3.43;;;1.00;;
9809;SDS011;4944;52.514;13.192;2024-01-15T10:00:29;2.03;;;0.93;;
9809;SDS011;4944;52.514;13.192;2024-01-15T10:02:56;2.57;;;1.03;;
9809;SDS011;4944;52.514;13.192;2024-01-15T10:05:25;2.07;;;1.10;;
9809;SDS011;4944;52.514;13.192;2024-01-15T10:07:54;3.87;;;1.07;;
9809;SDS011;4944;52.514;13.192;2024-01-15T10:10:22;2.63;;;1.10;;
9809;SDS011;4944;52.514;13.192;2024-01-15T10:12:49;1.90;;;0.80;;
9809;SDS011;4944;52.514;13.192;2024-01-15T10:15:16;0.87;;;0.80;;
9809;SDS011;4944;52.514;13.192;2024-01-15T10:17:43;4.30;;;1.20;;
9809;SDS011;4944;52.514;13.192;2024-01-15T10:20:10;1.27;;;0.83;;
9809;SDS011;4944;52.514;13.192;2024-01-15T10:22:39;2.47;;;1.10;;
9809;SDS011;4944;52.514;13.192;2024-01-15T10:25:11;1.63;;;1.03;;
9809;SDS011;4944;52.514;13.192;2024-01-15T10:27:38;1.07;;;0.93;;
9809;SDS011;4944;52.514;13.192;2024-01-15T10:30:06;0.80;;;0.80;;
9809;SDS011;4944;52.514;13.192;2024-01-15T10:32:34;5.00;;;1.43;;
9809;SDS011;4944;52.514;13.192;2024-01-15T10:35:01;2.73;;;1.10;;
9809;SDS011;4944;52.514;13.192;2024-01-15T10:37:28;1.10;;;1.00;;
9809;SDS011;4944;52.514;13.192;2024-01-15T10:40:00;2.23;;;1.17;;
9809;SDS011;4944;52.514;13.192;2024-01-15T10:42:30;2.47;;;1.00;;
9809;SDS011;4944;52.514;13.192;2024-01-15T10:44:57;1.63;;;0.97;;
9809;SDS011;4944;52.514;13.192;2024-01-15T10:47:23;0.97;;;0.77;;
9809;SDS011;4944;52.514;13.192;2024-01-15T10:49:50;1.43;;;0.90;;
9809;SDS011;4944;52.514;13.192;2024-01-15T10:52:18;1.30;;;0.97;;
9809;SDS011;4944;52.514;13.192;2024-01-15T10:54:45;2.53;;;0.97;;
9809;SDS011;4944;52.514;13.192;2024-01-15T10:57:13;0.87;;;0.50;;
9809;SDS011;4944;52.514;13.192;2024-01-15T10:59:43;1.13;;;0.80;;
9809;SDS011;4944;52.514;13.192;2024-01-15T11:02:11;1.00;;;0.50;;
9809;SDS011;4944;52.514;13.192;2024-01-15T11:04:39;1.20;;;0.60;;
9809;SDS011;4944;52.514;13.192;2024-01-15T11:07:06;1.33;;;0.73;;
9809;SDS011;4944;52.514;13.192;2024-01-15T11:09:33;0.60;;;0.60;;
9809;SDS011;4944;52.514;13.192;2024-01-15T11:12:09;1.70;;;0.63;;
9809;SDS011;4944;52.514;13.192;2024-01-15T11:14:41;0.63;;;0.57;;
9809;SDS011;4944;52.514;13.192;2024-01-15T11:17:10;1.13;;;0.80;;
9809;SDS011;4944;52.514;13.192;2024-01-15T11:19:38;1.97;;;0.70;;
9809;SDS011;4944;52.514;13.192;2024-01-15T11:22:09;0.60;;;0.60;;
9809;SDS011;4944;52.514;13.192;2024-01-15T11:24:37;1.70;;;1.13;;
9809;SDS011;4944;52.514;13.192;2024-01-15T11:27:05;2.17;;;1.13;;
9809;SDS011;4944;52.514;13.192;2024-01-15T11:29:33;2.57;;;1.00;;
9809;SDS011;4944;52.514;13.192;2024-01-15T11:32:01;1.70;;;0.80;;
9809;SDS011;4944;52.514;13.192;2024-01-15T11:37:23;1.63;;;1.03;;
9809;SDS011;4944;52.514;13.192;2024-01-15T11:39:51;1.40;;;1.07;;
9809;SDS011;4944;52.514;13.192;2024-01-15T11:42:19;1.13;;;0.90;;
9809;SDS011;4944;52.514;13.192;2024-01-15T11:44:47;0.70;;;0.70;;
9809;SDS011;4944;52.514;13.192;2024-01-15T11:47:14;1.07;;;1.07;;
9809;SDS011;4944;52.514;13.192;2024-01-15T11:49:58;1.20;;;1.10;;
9809;SDS011;4944;52.514;13.192;2024-01-15T11:52:28;1.10;;;0.80;;
9809;SDS011;4944;52.514;13.192;2024-01-15T11:55:00;1.00;;;0.67;;
9809;SDS011;4944;52.514;13.192;2024-01-15T11:57:33;1.10;;;1.00;;
9809;SDS011;4944;52.514;13.192;2024-01-15T12:00:08;1.20;;;1.13;;
9809;SDS011;4944;52.514;13.192;2024-01-15T12:02:36;0.90;;;0.90;;
9809;SDS011;4944;52.514;13.192;2024-01-15T12:05:05;1.33;;;1.23;;
9809;SDS011;4944;52.514;13.192;2024-01-15T12:07:33;1.00;;;1.00;;
9809;SDS011;4944;52.514;13.192;2024-01-15T12:10:00;1.00;;;1.00;;
9809;SDS011;4944;52.514;13.192;2024-01-15T12:12:29;0.90;;;0.90;;
9809;SDS011;4944;52.514;13.192;2024-01-15T12:15:04;0.97;;;0.97;;
9809;SDS011;4944;52.514;13.192;2024-01-15T12:17:31;1.10;;;1.00;;
9809;SDS011;4944;52.514;13.192;2024-01-15T12:19:58;1.70;;;0.90;;
9809;SDS011;4944;52.514;13.192;2024-01-15T12:22:27;1.30;;;1.20;;
9809;SDS011;4944;52.514;13.192;2024-01-15T12:24:54;1.90;;;0.80;;
9809;SDS011;4944;52.514;13.192;2024-01-15T12:27:22;1.57;;;0.90;;
9809;SDS011;4944;52.514;13.192;2024-01-15T12:29:50;1.10;;;1.00;;
9809;SDS011;4944;52.514;13.192;2024-01-15T12:32:18;1.00;;;0.90;;
9809;SDS011;4944;52.514;13.192;2024-01-15T12:34:46;1.00;;;0.87;;
9809;SDS011;4944;52.514;13.192;2024-01-15T12:37:14;0.70;;;0.60;;
9809;SDS011;4944;52.514;13.192;2024-01-15T12:39:45;0.70;;;0.70;;
9809;SDS011;4944;52.514;13.192;2024-01-15T12:42:13;0.80;;;0.80;;
9809;SDS011;4944;52.514;13.192;2024-01-15T12:44:41;1.00;;;0.90;;
9809;SDS011;4944;52.514;13.192;2024-01-15T12:47:08;0.80;;;0.80;;
9809;SDS011;4944;52.514;13.192;2024-01-15T12:49:36;1.10;;;1.10;;
9809;SDS011;4944;52.514;13.192;2024-01-15T12:52:07;0.83;;;0.83;;
9809;SDS011;4944;52.514;13.192;2024-01-15T12:54:35;1.37;;;1.00;;
9809;SDS011;4944;52.514;13.192;2024-01-15T12:57:04;1.83;;;0.90;;
9809;SDS011;4944;52.514;13.192;2024-01-15T12:59:31;1.10;;;1.10;;
9809;SDS011;4944;52.514;13.192;2024-01-15T13:01:59;1.47;;;1.10;;
9809;SDS011;4944;52.514;13.192;2024-01-15T13:04:26;0.90;;;0.90;;
9809;SDS011;4944;52.514;13.192;2024-01-15T13:06:54;1.30;;;1.20;;
9809;SDS011;4944;52.514;13.192;2024-01-15T13:09:21;0.93;;;0.87;;
9809;SDS011;4944;52.514;13.192;2024-01-15T13:11:48;1.77;;;1.43;;
9809;SDS011;4944;52.514;13.192;2024-01-15T13:14:16;0.93;;;0.93;;
9809;SDS011;4944;52.514;13.192;2024-01-15T13:16:43;1.83;;;1.30;;
9809;SDS011;4944;52.514;13.192;2024-01-15T13:19:10;0.80;;;0.80;;
9809;SDS011;4944;52.514;13.192;2024-01-15T13:21:38;1.17;;;0.80;;
9809;SDS011;4944;52.514;13.192;2024-01-15T13:24:05;0.93;;;0.93;;
9809;SDS011;4944;52.514;13.192;2024-01-15T13:26:32;1.13;;;0.97;;
9809;SDS011;4944;52.514;13.192;2024-01-15T13:28:59;0.93;;;0.90;;
9809;SDS011;4944;52.514;13.192;2024-01-15T13:31:27;1.07;;;0.87;;
9809;SDS011;4944;52.514;13.192;2024-01-15T13:33:54;1.10;;;1.00;;
9809;SDS011;4944;52.514;13.192;2024-01-15T13:36:21;0.83;;;0.83;;
9809;SDS011;4944;52.514;13.192;2024-01-15T13:38:48;1.13;;;0.83;;
9809;SDS011;4944;52.514;13.192;2024-01-15T13:41:15;1.43;;;1.30;;
9809;SDS011;4944;52.514;13.192;2024-01-15T13:43:44;2.77;;;1.10;;
9809;SDS011;4944;52.514;13.192;2024-01-15T13:46:15;1.47;;;1.20;;
9809;SDS011;4944;52.514;13.192;2024-01-15T13:48:43;1.03;;;0.83;;
9809;SDS011;4944;52.514;13.192;2024-01-15T13:51:10;1.53;;;1.30;;
9809;SDS011;4944;52.514;13.192;2024-01-15T13:53:37;2.17;;;1.50;;
9809;SDS011;4944;52.514;13.192;2024-01-15T13:56:05;0.80;;;0.80;;
9809;SDS011;4944;52.514;13.192;2024-01-15T13:58:32;4.07;;;1.60;;
9809;SDS011;4944;52.514;13.192;2024-01-15T14:01:00;1.70;;;1.10;;
9809;SDS011;4944;52.514;13.192;2024-01-15T14:03:28;1.90;;;1.17;;
9809;SDS011;4944;52.514;13.192;2024-01-15T14:05:57;3.87;;;1.47;;
9809;SDS011;4944;52.514;13.192;2024-01-15T14:08:24;2.40;;;1.30;;
9809;SDS011;4944;52.514;13.192;2024-01-15T14:10:51;7.53;;;1.43;;
9809;SDS011;4944;52.514;13.192;2024-01-15T14:13:18;1.10;;;0.90;;
9809;SDS011;4944;52.514;13.192;2024-01-15T14:15:45;1.67;;;0.97;;
9809;SDS011;4944;52.514;13.192;2024-01-15T14:18:13;1.93;;;1.00;;
9809;SDS011;4944;52.514;13.192;2024-01-15T14:20:40;1.80;;;0.93;;
9809;SDS011;4944;52.514;13.192;2024-01-15T14:23:09;1.00;;;0.90;;
9809;SDS011;4944;52.514;13.192;2024-01-15T14:25:36;1.40;;;0.83;;
9809;SDS011;4944;52.514;13.192;2024-01-15T14:28:03;1.70;;;1.50;;
9809;SDS011;4944;52.514;13.192;2024-01-15T14:30:30;2.17;;;1.10;;
9809;SDS011;4944;52.514;13.192;2024-01-15T14:32:57;1.67;;;1.10;;
9809;SDS011;4944;52.514;13.192;2024-01-15T14:35:24;1.07;;;0.77;;
9809;SDS011;4944;52.514;13.192;2024-01-15T14:37:51;3.43;;;1.30;;
9809;SDS011;4944;52.514;13.192;2024-01-15T14:40:19;2.07;;;1.00;;
9809;SDS011;4944;52.514;13.192;2024-01-15T14:42:46;3.87;;;1.37;;
9809;SDS011;4944;52.514;13.192;2024-01-15T14:45:13;2.37;;;1.40;;
9809;SDS011;4944;52.514;13.192;2024-01-15T14:47:40;2.63;;;1.20;;
9809;SDS011;4944;52.514;13.192;2024-01-15T14:50:09;2.60;;;1.30;;
9809;SDS011;4944;52.514;13.192;2024-01-15T14:52:37;1.20;;;1.10;;
9809;SDS011;4944;52.514;13.192;2024-01-15T14:55:04;1.97;;;1.00;;
9809;SDS011;4944;52.514;13.192;2024-01-15T14:57:35;1.53;;;0.90;;
9809;SDS011;4944;52.514;13.192;2024-01-15T15:00:02;1.00;;;0.90;;
9809;SDS011;4944;52.514;13.192;2024-01-15T15:02:32;1.27;;;0.83;;
9809;SDS011;4944;52.514;13.192;2024-01-15T15:04:59;1.23;;;1.00;;